createdAt,value
2017-07-09T00:01:01.052Z,101225.31
2017-07-09T00:03:33.528Z,101217.45
2017-07-09T00:06:05.992Z,101212.83
2017-07-09T00:08:38.388Z,101210.54
2017-07-09T00:11:10.800Z,101187.70
2017-07-09T00:13:44.441Z,101197.67
2017-07-09T00:16:17.745Z,101194.88
2017-07-09T00:18:50.199Z,101197.96
2017-07-09T00:21:23.605Z,101208.49
2017-07-09T00:23:56.005Z,101224.53
2017-07-09T00:26:28.465Z,101222.17
2017-07-09T00:31:41.476Z,101216.84
2017-07-09T00:34:13.873Z,101211.12
2017-07-09T00:36:46.247Z,101197.92
2017-07-09T00:39:18.730Z,101192.28
2017-07-09T00:41:51.157Z,101187.84
2017-07-09T00:44:23.781Z,101200.83
2017-07-09T00:47:03.077Z,101199.25
2017-07-09T00:49:35.474Z,101192.78
2017-07-09T00:52:07.849Z,101186.11
2017-07-09T00:54:40.303Z,101186.39
2017-07-09T00:57:12.757Z,101186.67
2017-07-09T00:59:44.997Z,101187.34
2017-07-09T01:02:17.417Z,101186.91
2017-07-09T01:04:49.785Z,101191.50
2017-07-09T01:07:22.197Z,101185.97
2017-07-09T01:09:54.579Z,101185.67
2017-07-09T01:12:26.905Z,101190.46
2017-07-09T01:14:59.524Z,101190.75
2017-07-09T01:17:31.600Z,101184.52
2017-07-09T01:20:03.996Z,101174.80
2017-07-09T01:22:37.306Z,101170.95
2017-07-09T01:25:09.939Z,101167.59
2017-07-09T01:27:41.932Z,101170.07
2017-07-09T01:30:14.275Z,101166.36
2017-07-09T01:32:47.062Z,101173.64
2017-07-09T01:35:19.097Z,101166.78
2017-07-09T01:37:51.427Z,101164.42
2017-07-09T01:40:23.756Z,101161.48
2017-07-09T01:42:56.173Z,101164.68
2017-07-09T01:45:28.495Z,101161.89
2017-07-09T01:48:00.992Z,101165.55
2017-07-09T01:50:33.244Z,101165.18
2017-07-09T01:53:05.741Z,101171.56
2017-07-09T01:55:38.119Z,101166.01
2017-07-09T01:58:10.439Z,101160.09
2017-07-09T02:00:42.843Z,101161.01
2017-07-09T02:03:15.185Z,101166.98
2017-07-09T02:05:47.917Z,101165.00
2017-07-09T02:08:19.910Z,101166.42
2017-07-09T02:10:52.381Z,101156.77
2017-07-09T02:13:24.684Z,101165.22
2017-07-09T02:15:57.153Z,101159.50
2017-07-09T02:18:29.489Z,101159.14
2017-07-09T02:21:01.911Z,101164.89
2017-07-09T02:23:34.333Z,101157.14
2017-07-09T02:26:06.777Z,101152.64
2017-07-09T02:28:40.145Z,101154.20
2017-07-09T02:31:12.565Z,101157.05
2017-07-09T02:33:44.860Z,101152.61
2017-07-09T02:36:17.269Z,101140.73
2017-07-09T02:38:49.628Z,101144.05
2017-07-09T02:41:21.997Z,101141.16
2017-07-09T02:43:55.226Z,101150.77
2017-07-09T02:46:27.941Z,101156.92
2017-07-09T02:49:00.224Z,101156.84
2017-07-09T02:51:32.723Z,101163.56
2017-07-09T02:54:05.288Z,101167.72
2017-07-09T02:56:37.309Z,101174.40
2017-07-09T02:59:09.824Z,101175.81
2017-07-09T03:01:42.188Z,101179.97
2017-07-09T03:04:14.575Z,101176.31
2017-07-09T03:06:46.930Z,101159.37
2017-07-09T03:09:19.360Z,101148.78
2017-07-09T03:11:51.698Z,101154.30
2017-07-09T03:14:24.088Z,101152.78
2017-07-09T03:16:56.423Z,101155.92
2017-07-09T03:19:29.898Z,101150.06
2017-07-09T03:22:02.223Z,101166.80
2017-07-09T03:24:34.622Z,101170.80
2017-07-09T03:27:07.040Z,101170.72
2017-07-09T03:29:40.285Z,101170.73
2017-07-09T03:32:12.790Z,101176.29
2017-07-09T03:34:45.280Z,101176.29
2017-07-09T03:37:17.744Z,101172.50
2017-07-09T03:39:50.158Z,101172.27
2017-07-09T03:42:22.628Z,101175.37
2017-07-09T03:44:55.797Z,101170.53
2017-07-09T03:47:28.502Z,101167.36
2017-07-09T03:50:00.888Z,101162.78
2017-07-09T03:52:33.233Z,101160.00
2017-07-09T03:55:05.677Z,101155.58
2017-07-09T03:57:37.971Z,101155.86
2017-07-09T04:00:11.444Z,101154.64
2017-07-09T04:02:43.766Z,101161.36
2017-07-09T04:05:16.178Z,101167.92
2017-07-09T04:07:48.497Z,101179.95
2017-07-09T04:10:20.786Z,101177.24
2017-07-09T04:12:53.059Z,101186.87
2017-07-09T04:15:25.444Z,101193.08
2017-07-09T04:17:57.780Z,101195.87
2017-07-09T04:20:30.142Z,101195.53
2017-07-09T04:23:02.428Z,101196.53
2017-07-09T04:25:34.942Z,101201.18
2017-07-09T04:28:07.396Z,101201.62
2017-07-09T04:30:39.654Z,101200.34
2017-07-09T04:33:12.031Z,101202.77
2017-07-09T04:35:44.525Z,101194.59
2017-07-09T04:38:16.848Z,101189.61
2017-07-09T04:40:49.169Z,101187.17
2017-07-09T04:43:21.929Z,101192.47
2017-07-09T04:45:54.015Z,101193.41
2017-07-09T04:48:26.274Z,101188.78
2017-07-09T04:50:58.843Z,101188.98
2017-07-09T04:53:30.876Z,101186.34
2017-07-09T04:56:03.289Z,101182.67
2017-07-09T04:58:35.655Z,101174.58
2017-07-09T05:01:08.133Z,101168.75
2017-07-09T05:03:40.565Z,101177.69
2017-07-09T05:06:12.932Z,101174.03
2017-07-09T05:08:45.353Z,101172.09
2017-07-09T05:11:17.728Z,101178.23
2017-07-09T05:13:50.082Z,101181.18
2017-07-09T05:16:22.351Z,101176.45
2017-07-09T05:18:54.741Z,101167.36
2017-07-09T05:21:27.331Z,101161.72
2017-07-09T05:23:59.593Z,101153.88
2017-07-09T05:26:32.092Z,101153.30
2017-07-09T05:29:04.440Z,101155.72
2017-07-09T05:31:36.764Z,101148.95
2017-07-09T05:34:09.111Z,101148.55
2017-07-09T05:36:41.514Z,101139.41
2017-07-09T05:39:13.779Z,101139.86
2017-07-09T05:41:46.516Z,101144.42
2017-07-09T05:44:18.813Z,101136.59
2017-07-09T05:46:51.177Z,101136.27
2017-07-09T05:49:24.427Z,101132.82
2017-07-09T05:51:57.069Z,101143.31
2017-07-09T05:54:29.439Z,101130.09
2017-07-09T05:57:01.859Z,101135.06
2017-07-09T05:59:34.320Z,101133.30
2017-07-09T06:02:06.693Z,101134.16
2017-07-09T06:04:39.140Z,101132.16
2017-07-09T06:07:11.391Z,101134.73
2017-07-09T06:09:43.725Z,101128.45
2017-07-09T06:12:16.195Z,101130.31
2017-07-09T06:14:48.550Z,101129.02
2017-07-09T06:17:20.844Z,101128.52
2017-07-09T06:19:53.164Z,101136.39
2017-07-09T06:22:25.924Z,101141.36
2017-07-09T06:24:58.010Z,101144.07
2017-07-09T06:27:30.368Z,101144.55
2017-07-09T06:30:02.828Z,101146.16
2017-07-09T06:32:35.283Z,101143.97
2017-07-09T06:35:07.996Z,101141.63
2017-07-09T06:37:41.274Z,101140.53
2017-07-09T06:40:13.695Z,101127.27
2017-07-09T06:42:46.181Z,101127.27
2017-07-09T06:45:18.493Z,101125.97
2017-07-09T06:47:50.977Z,101123.55
2017-07-09T06:50:23.364Z,101124.91
2017-07-09T06:52:55.767Z,101119.22
2017-07-09T06:55:28.198Z,101127.63
2017-07-09T06:58:00.536Z,101122.75
2017-07-09T07:00:32.956Z,101128.42
2017-07-09T07:03:05.333Z,101129.28
2017-07-09T07:05:37.699Z,101118.11
2017-07-09T07:08:10.216Z,101131.21
2017-07-09T07:10:43.450Z,101127.90
2017-07-09T07:13:16.093Z,101123.35
2017-07-09T07:15:48.424Z,101127.79
2017-07-09T07:18:20.732Z,101131.86
2017-07-09T07:20:53.156Z,101136.86
2017-07-09T07:23:25.771Z,101137.61
2017-07-09T07:25:58.221Z,101139.14
2017-07-09T07:28:30.805Z,101134.94
2017-07-09T07:31:03.398Z,101132.54
2017-07-09T07:33:35.382Z,101137.77
2017-07-09T07:36:07.697Z,101141.52
2017-07-09T07:38:40.139Z,101138.52
2017-07-09T07:41:12.733Z,101143.38
2017-07-09T07:43:44.993Z,101144.30
2017-07-09T07:46:17.332Z,101142.81
2017-07-09T07:48:49.832Z,101140.80
2017-07-09T07:51:22.147Z,101138.42
2017-07-09T07:53:54.680Z,101137.61
2017-07-09T07:56:27.965Z,101129.95
2017-07-09T07:59:00.499Z,101128.91
2017-07-09T08:01:32.892Z,101123.02
2017-07-09T08:04:05.213Z,101121.75
2017-07-09T08:06:37.520Z,101112.55
2017-07-09T08:09:10.008Z,101113.70
2017-07-09T08:11:42.521Z,101103.23
2017-07-09T08:14:14.970Z,101091.44
2017-07-09T08:16:47.432Z,101095.38
2017-07-09T08:19:19.876Z,101089.70
2017-07-09T08:21:52.181Z,101082.25
2017-07-09T08:24:24.964Z,101084.91
2017-07-09T08:26:58.008Z,101076.95
2017-07-09T08:29:30.549Z,101074.48
2017-07-09T08:32:03.005Z,101081.06
2017-07-09T08:34:35.400Z,101086.31
2017-07-09T08:37:08.377Z,101087.06
2017-07-09T08:39:40.319Z,101088.63
2017-07-09T08:42:12.733Z,101097.70
2017-07-09T08:44:45.477Z,101096.33
2017-07-09T08:47:17.762Z,101088.11
2017-07-09T08:49:50.100Z,101081.78
2017-07-09T08:52:22.814Z,101076.63
2017-07-09T08:54:54.909Z,101070.02
2017-07-09T08:57:27.353Z,101068.56
2017-07-09T09:00:00.240Z,101065.73
2017-07-09T09:02:32.213Z,101065.93
2017-07-09T09:05:05.128Z,101075.95
2017-07-09T09:07:37.112Z,101076.12
2017-07-09T09:10:09.417Z,101074.25
2017-07-09T09:12:41.804Z,101070.23
2017-07-09T09:15:14.205Z,101073.28
2017-07-09T09:17:46.668Z,101064.53
2017-07-09T09:20:19.158Z,101073.08
2017-07-09T09:22:52.022Z,101074.47
2017-07-09T09:25:24.405Z,101067.66
2017-07-09T09:27:56.789Z,101065.15
2017-07-09T09:30:29.189Z,101060.48
2017-07-09T09:33:01.549Z,101065.08
2017-07-09T09:35:34.000Z,101058.36
2017-07-09T09:38:07.255Z,101058.67
2017-07-09T09:40:39.975Z,101063.55
2017-07-09T09:43:12.351Z,101060.06
2017-07-09T09:45:44.786Z,101058.55
2017-07-09T09:48:17.193Z,101058.78
2017-07-09T09:50:49.701Z,101057.42
2017-07-09T09:53:22.153Z,101052.52
2017-07-09T09:55:54.653Z,101042.53
2017-07-09T09:58:27.001Z,101048.55
2017-07-09T10:00:59.494Z,101047.39
2017-07-09T10:03:31.949Z,101045.27
2017-07-09T10:06:04.456Z,101042.95
2017-07-09T10:08:36.744Z,101041.86
2017-07-09T10:11:09.199Z,101033.05
2017-07-09T10:13:41.810Z,101031.13
2017-07-09T10:16:14.344Z,101024.41
2017-07-09T10:18:46.588Z,101019.55
2017-07-09T10:21:19.146Z,101016.89
2017-07-09T10:23:51.531Z,101012.00
2017-07-09T10:26:23.939Z,101016.98
2017-07-09T10:28:56.699Z,101019.31
2017-07-09T10:31:28.861Z,101014.55
2017-07-09T10:34:01.378Z,101006.05
2017-07-09T10:36:34.004Z,101016.75
2017-07-09T10:39:06.113Z,101017.67
2017-07-09T10:41:38.662Z,101015.94
2017-07-09T10:44:10.838Z,101012.14
2017-07-09T10:46:43.337Z,101006.52
2017-07-09T10:49:15.784Z,101007.89
2017-07-09T10:51:48.256Z,101009.45
2017-07-09T10:54:20.732Z,101002.24
2017-07-09T10:56:53.104Z,101001.76
2017-07-09T10:59:25.484Z,101007.52
2017-07-09T11:01:58.991Z,101006.49
2017-07-09T11:04:31.364Z,101010.37
2017-07-09T11:07:03.741Z,101010.94
2017-07-09T11:09:36.221Z,101012.72
2017-07-09T11:12:08.759Z,101013.00
2017-07-09T11:14:41.116Z,101008.90
2017-07-09T11:17:13.829Z,101013.44
2017-07-09T11:19:46.090Z,101013.10
2017-07-09T11:22:18.393Z,101005.98
2017-07-09T11:24:50.853Z,101014.43
2017-07-09T11:27:23.268Z,101018.56
2017-07-09T11:29:55.614Z,101010.05
2017-07-09T11:32:28.036Z,101012.92
2017-07-09T11:35:00.721Z,101009.65
2017-07-09T11:37:32.782Z,101002.52
2017-07-09T11:40:05.199Z,101011.98
2017-07-09T11:42:37.678Z,101000.75
2017-07-09T11:45:10.038Z,100999.87
2017-07-09T11:47:42.539Z,100999.44
2017-07-09T11:50:15.837Z,101003.84
2017-07-09T11:52:49.183Z,100997.17
2017-07-09T11:55:21.678Z,101001.88
2017-07-09T11:57:54.181Z,100996.06
2017-07-09T12:00:26.522Z,100996.95
2017-07-09T12:02:59.016Z,100992.22
2017-07-09T12:05:32.404Z,100989.89
2017-07-09T12:08:04.996Z,100985.97
2017-07-09T12:10:38.441Z,100988.28
2017-07-09T12:13:10.941Z,100982.11
2017-07-09T12:15:43.322Z,100983.73
2017-07-09T12:18:15.737Z,100992.49
2017-07-09T12:20:48.262Z,100988.26
2017-07-09T12:23:20.663Z,100989.42
2017-07-09T12:25:53.440Z,100984.67
2017-07-09T12:28:25.549Z,100985.52
2017-07-09T12:30:58.054Z,100979.12
2017-07-09T12:33:30.395Z,100975.93
2017-07-09T12:36:02.781Z,100976.02
2017-07-09T12:38:35.169Z,100971.77
2017-07-09T12:41:07.464Z,100968.31
2017-07-09T12:43:39.989Z,100967.35
2017-07-09T12:46:12.372Z,100963.16
2017-07-09T12:48:44.932Z,100957.06
2017-07-09T12:51:17.386Z,100956.20
2017-07-09T12:53:49.821Z,100949.81
2017-07-09T12:56:22.154Z,100951.27
2017-07-09T12:58:54.633Z,100962.59
2017-07-09T13:01:26.999Z,100947.09
2017-07-09T13:03:59.523Z,100954.80
2017-07-09T13:06:32.474Z,100950.82
2017-07-09T13:09:05.248Z,100944.09
2017-07-09T13:11:37.577Z,100951.97
2017-07-09T13:14:09.985Z,100948.39
2017-07-09T13:16:42.566Z,100948.96
2017-07-09T13:19:15.048Z,100939.77
2017-07-09T13:21:47.835Z,100943.30
2017-07-09T13:24:19.774Z,100934.17
2017-07-09T13:26:52.127Z,100932.44
2017-07-09T13:29:24.926Z,100934.30
2017-07-09T13:31:57.541Z,100930.12
2017-07-09T13:34:29.303Z,100930.34
2017-07-09T13:37:01.649Z,100930.37
2017-07-09T13:39:34.135Z,100930.70
2017-07-09T13:42:06.597Z,100928.83
2017-07-09T13:44:39.024Z,100934.66
2017-07-09T13:47:11.356Z,100930.14
2017-07-09T13:49:43.705Z,100927.95
2017-07-09T13:52:16.080Z,100917.31
2017-07-09T13:54:48.497Z,100921.77
2017-07-09T13:57:20.797Z,100924.88
2017-07-09T13:59:54.015Z,100926.09
2017-07-09T14:02:26.749Z,100918.64
2017-07-09T14:04:59.116Z,100909.84
2017-07-09T14:07:32.391Z,100899.23
2017-07-09T14:10:05.858Z,100895.08
2017-07-09T14:12:38.259Z,100898.08
2017-07-09T14:15:10.617Z,100890.70
2017-07-09T14:17:43.017Z,100897.87
2017-07-09T14:20:16.511Z,100882.03
2017-07-09T14:22:48.865Z,100886.74
2017-07-09T14:25:21.381Z,100881.11
2017-07-09T14:27:53.758Z,100882.92
2017-07-09T14:30:26.240Z,100877.70
2017-07-09T14:32:58.677Z,100875.83
2017-07-09T14:35:30.972Z,100877.75
2017-07-09T14:38:04.280Z,100869.80
2017-07-09T14:40:36.650Z,100870.55
2017-07-09T14:43:24.172Z,100873.56
2017-07-09T14:45:56.838Z,100872.47
2017-07-09T14:48:29.275Z,100869.46
2017-07-09T14:51:02.674Z,100867.23
2017-07-09T14:53:35.031Z,100862.06
2017-07-09T14:56:08.562Z,100861.00
2017-07-09T14:58:40.857Z,100865.26
2017-07-09T15:01:13.433Z,100858.50
2017-07-09T15:03:45.800Z,100861.72
2017-07-09T15:06:18.292Z,100851.78
2017-07-09T15:08:50.649Z,100847.53
2017-07-09T15:11:23.056Z,100848.58
2017-07-09T15:13:55.418Z,100844.06
2017-07-09T15:16:27.725Z,100837.84
2017-07-09T15:18:59.968Z,100843.94
2017-07-09T15:21:32.358Z,100838.59
2017-07-09T15:24:04.758Z,100836.75
2017-07-09T15:26:37.132Z,100832.31
2017-07-09T15:29:09.481Z,100830.42
2017-07-09T15:31:41.897Z,100826.41
2017-07-09T15:34:14.302Z,100830.25
2017-07-09T15:36:46.727Z,100826.08
2017-07-09T15:39:19.180Z,100824.51
2017-07-09T15:41:51.536Z,100819.15
2017-07-09T15:44:23.950Z,100817.45
2017-07-09T15:46:56.385Z,100819.16
2017-07-09T15:49:28.648Z,100812.98
2017-07-09T15:52:01.014Z,100818.14
2017-07-09T15:54:33.347Z,100814.67
2017-07-09T15:57:05.833Z,100815.79
2017-07-09T15:59:38.403Z,100808.62
2017-07-09T16:02:11.813Z,100805.47
2017-07-09T16:04:44.169Z,100804.20
2017-07-09T16:07:16.597Z,100803.09
2017-07-09T16:09:48.848Z,100798.94
2017-07-09T16:12:21.194Z,100800.74
2017-07-09T16:14:53.668Z,100802.32
2017-07-09T16:17:26.068Z,100795.08
2017-07-09T16:19:58.552Z,100792.63
2017-07-09T16:22:30.887Z,100786.00
2017-07-09T16:25:03.337Z,100785.00
2017-07-09T16:27:35.750Z,100780.96
2017-07-09T16:30:08.000Z,100781.05
2017-07-09T16:32:40.523Z,100778.59
2017-07-09T16:35:12.970Z,100775.30
2017-07-09T16:37:46.530Z,100772.11
2017-07-09T16:40:18.953Z,100765.47
2017-07-09T16:42:51.620Z,100763.05
2017-07-09T16:45:23.602Z,100763.64
2017-07-09T16:47:55.982Z,100759.19
2017-07-09T16:50:28.452Z,100756.22
2017-07-09T16:53:00.829Z,100750.47
2017-07-09T16:55:33.216Z,100748.55
2017-07-09T16:58:05.588Z,100747.96
2017-07-09T17:00:38.094Z,100744.00
2017-07-09T17:03:10.412Z,100750.88
2017-07-09T17:05:43.886Z,100746.58
2017-07-09T17:08:16.392Z,100747.75
2017-07-09T17:10:48.737Z,100742.52
2017-07-09T17:13:21.182Z,100744.02
2017-07-09T17:15:53.595Z,100752.39
2017-07-09T17:18:26.007Z,100747.30
2017-07-09T17:20:58.302Z,100742.95
2017-07-09T17:23:31.016Z,100741.17
2017-07-09T17:26:03.186Z,100742.13
2017-07-09T17:28:35.706Z,100736.95
2017-07-09T17:31:08.143Z,100737.63
2017-07-09T17:33:41.564Z,100739.23
2017-07-09T17:36:13.957Z,100736.56
2017-07-09T17:38:46.358Z,100732.62
2017-07-09T17:41:18.776Z,100727.43
2017-07-09T17:43:51.096Z,100715.36
2017-07-09T17:46:23.620Z,100706.48
2017-07-09T17:48:55.912Z,100712.55
2017-07-09T17:51:28.570Z,100710.88
2017-07-09T17:54:00.731Z,100715.78
2017-07-09T17:56:33.430Z,100714.63
2017-07-09T17:59:05.699Z,100710.91
2017-07-09T18:01:37.779Z,100709.20
2017-07-09T18:04:10.265Z,100715.80
2017-07-09T18:06:42.592Z,100714.98
2017-07-09T18:09:16.086Z,100714.23
2017-07-09T18:11:56.435Z,100716.80
2017-07-09T18:14:29.012Z,100711.83
2017-07-09T18:17:01.400Z,100713.31
2017-07-09T18:19:33.819Z,100713.72
2017-07-09T18:22:06.299Z,100722.84
2017-07-09T18:24:39.685Z,100736.08
2017-07-09T18:27:12.111Z,100721.02
2017-07-09T18:29:44.497Z,100724.53
2017-07-09T18:32:16.857Z,100720.79
2017-07-09T18:34:49.449Z,100722.92
2017-07-09T18:37:21.665Z,100722.08
2017-07-09T18:39:54.145Z,100720.17
2017-07-09T18:42:26.273Z,100716.44
2017-07-09T18:44:58.802Z,100718.16
2017-07-09T18:47:31.289Z,100711.48
2017-07-09T18:50:03.722Z,100707.63
2017-07-09T18:52:35.900Z,100709.09
2017-07-09T18:55:09.483Z,100713.16
2017-07-09T18:57:41.694Z,100716.52
2017-07-09T19:00:14.160Z,100712.50
2017-07-09T19:02:47.752Z,100711.31
2017-07-09T19:05:21.094Z,100709.05
2017-07-09T19:07:53.681Z,100713.02
2017-07-09T19:10:25.868Z,100709.14
2017-07-09T19:12:58.358Z,100704.28
2017-07-09T19:15:31.805Z,100711.83
2017-07-09T19:18:04.185Z,100706.19
2017-07-09T19:20:36.609Z,100704.65
2017-07-09T19:23:08.937Z,100703.83
2017-07-09T19:25:41.459Z,100704.31
2017-07-09T19:28:13.856Z,100698.53
2017-07-09T19:30:46.300Z,100698.44
2017-07-09T19:33:18.531Z,100702.91
2017-07-09T19:35:50.981Z,100701.30
2017-07-09T19:38:24.218Z,100695.41
2017-07-09T19:40:56.825Z,100706.42
2017-07-09T19:43:28.989Z,100699.03
2017-07-09T19:46:01.505Z,100703.72
2017-07-09T19:48:33.945Z,100704.55
2017-07-09T19:51:06.183Z,100706.50
2017-07-09T19:53:38.721Z,100702.95
2017-07-09T19:56:10.936Z,100707.86
2017-07-09T19:58:43.305Z,100701.37
2017-07-09T20:01:16.451Z,100704.37
2017-07-09T20:03:49.081Z,100712.55
2017-07-09T20:06:22.256Z,100711.20
2017-07-09T20:08:54.843Z,100710.60
2017-07-09T20:11:27.252Z,100706.64
2017-07-09T20:13:59.673Z,100704.34
2017-07-09T20:16:32.283Z,100707.29
2017-07-09T20:19:04.638Z,100710.06
2017-07-09T20:21:37.126Z,100715.25
2017-07-09T20:24:10.869Z,100709.84
2017-07-09T20:26:43.025Z,100714.88
2017-07-09T20:29:15.396Z,100714.88
2017-07-09T20:31:47.736Z,100718.37
2017-07-09T20:34:20.125Z,100717.67
2017-07-09T20:36:52.521Z,100717.94
2017-07-09T20:39:24.933Z,100721.14
2017-07-09T20:41:57.321Z,100718.36
2017-07-09T20:44:29.594Z,100721.63
2017-07-09T20:47:02.083Z,100714.13
2017-07-09T20:49:34.541Z,100709.56
2017-07-09T20:52:07.132Z,100703.64
2017-07-09T20:54:39.630Z,100702.19
2017-07-09T20:57:12.394Z,100705.09
2017-07-09T20:59:44.464Z,100694.22
2017-07-09T21:02:16.940Z,100698.06
2017-07-09T21:04:50.620Z,100704.48
2017-07-09T21:07:22.939Z,100704.23
2017-07-09T21:09:55.401Z,100710.70
2017-07-09T21:12:27.769Z,100715.06
2017-07-09T21:15:00.133Z,100711.55
2017-07-09T21:17:32.630Z,100711.56
2017-07-09T21:20:05.044Z,100707.22
2017-07-09T21:22:37.375Z,100700.38
2017-07-09T21:25:10.910Z,100695.25
2017-07-09T21:27:43.385Z,100692.44
2017-07-09T21:30:16.081Z,100697.80
2017-07-09T21:32:48.246Z,100698.98
2017-07-09T21:35:20.581Z,100702.46
2017-07-09T21:37:53.010Z,100707.75
2017-07-09T21:40:25.338Z,100697.70
2017-07-09T21:42:57.653Z,100694.08
2017-07-09T21:45:30.012Z,100698.62
2017-07-09T21:48:02.345Z,100695.39
2017-07-09T21:50:34.933Z,100690.94
2017-07-09T21:53:08.309Z,100690.99
2017-07-09T21:55:40.882Z,100691.58
2017-07-09T21:58:13.069Z,100687.29
2017-07-09T22:00:45.466Z,100680.80
2017-07-09T22:03:18.054Z,100682.75
2017-07-09T22:05:50.936Z,100680.41
2017-07-09T22:08:23.185Z,100684.76
2017-07-09T22:10:55.594Z,100684.91
2017-07-09T22:13:27.973Z,100678.41
2017-07-09T22:16:01.144Z,100673.08
2017-07-09T22:18:33.577Z,100671.13
2017-07-09T22:21:05.979Z,100675.13
2017-07-09T22:23:38.476Z,100684.63
2017-07-09T22:26:10.944Z,100685.84
2017-07-09T22:28:43.340Z,100683.20
2017-07-09T22:31:15.734Z,100675.39
2017-07-09T22:33:48.214Z,100684.86
2017-07-09T22:36:20.605Z,100672.00
2017-07-09T22:38:52.917Z,100666.59
2017-07-09T22:41:25.256Z,100654.11
2017-07-09T22:43:57.536Z,100648.09
2017-07-09T22:46:29.790Z,100648.25
2017-07-09T22:49:02.174Z,100637.16
2017-07-09T22:51:34.557Z,100629.25
2017-07-09T22:54:06.951Z,100624.09
2017-07-09T22:56:39.422Z,100619.94
2017-07-09T22:59:12.852Z,100618.82
2017-07-09T23:01:45.109Z,100615.10
2017-07-09T23:04:17.832Z,100618.17
2017-07-09T23:06:49.868Z,100608.70
2017-07-09T23:09:22.281Z,100600.70
2017-07-09T23:11:54.726Z,100602.69
2017-07-09T23:14:27.143Z,100599.18
2017-07-09T23:16:59.395Z,100598.09
2017-07-09T23:19:31.893Z,100603.80
2017-07-09T23:22:04.339Z,100602.28
2017-07-09T23:24:36.653Z,100601.50
2017-07-09T23:27:09.011Z,100601.41
2017-07-09T23:29:41.521Z,100597.97
2017-07-09T23:32:13.847Z,100598.25
2017-07-09T23:34:46.236Z,100596.05
2017-07-09T23:37:18.678Z,100594.39
2017-07-09T23:39:50.969Z,100587.59
2017-07-09T23:42:30.110Z,100583.75
2017-07-09T23:45:03.656Z,100579.72
2017-07-09T23:47:36.044Z,100574.53
2017-07-09T23:50:08.426Z,100574.28
2017-07-09T23:52:40.750Z,100575.33
2017-07-09T23:55:13.206Z,100561.98
2017-07-09T23:57:45.553Z,100566.39
